sensor_id;sensor_type;location;lat;lon;timestamp;P1;durP1;ratioP1;P2;durP2;ratioP2
59159;SDS011;44941;45.058;20.076;2022-12-18T00:00:32;32.45;;;15.70;;
59159;SDS011;44941;45.058;20.076;2022-12-18T00:02:58;29.77;;;15.15;;
59159;SDS011;44941;45.058;20.076;2022-12-18T00:05:24;28.63;;;15.10;;
59159;SDS011;44941;45.058;20.076;2022-12-18T00:07:50;29.70;;;15.30;;
59159;SDS011;44941;45.058;20.076;2022-12-18T00:10:16;26.63;;;13.70;;
59159;SDS011;44941;45.058;20.076;2022-12-18T00:12:42;28.85;;;15.32;;
59159;SDS011;44941;45.058;20.076;2022-12-18T00:15:08;29.00;;;14.88;;
59159;SDS011;44941;45.058;20.076;2022-12-18T00:17:34;28.17;;;14.57;;
59159;SDS011;44941;45.058;20.076;2022-12-18T00:20:01;32.42;;;16.45;;
59159;SDS011;44941;45.058;20.076;2022-12-18T00:22:27;29.95;;;15.18;;
59159;SDS011;44941;45.058;20.076;2022-12-18T00:24:53;28.13;;;14.85;;
59159;SDS011;44941;45.058;20.076;2022-12-18T00:27:19;30.27;;;15.77;;
59159;SDS011;44941;45.058;20.076;2022-12-18T00:29:45;27.73;;;15.25;;
59159;SDS011;44941;45.058;20.076;2022-12-18T00:32:17;28.08;;;14.93;;
59159;SDS011;44941;45.058;20.076;2022-12-18T00:34:43;29.50;;;15.13;;
59159;SDS011;44941;45.058;20.076;2022-12-18T00:37:09;30.25;;;15.43;;
59159;SDS011;44941;45.058;20.076;2022-12-18T00:39:35;31.52;;;15.93;;
59159;SDS011;44941;45.058;20.076;2022-12-18T00:42:01;31.55;;;15.90;;
59159;SDS011;44941;45.058;20.076;2022-12-18T00:44:46;27.77;;;15.93;;
59159;SDS011;44941;45.058;20.076;2022-12-18T00:47:12;30.00;;;15.18;;
59159;SDS011;44941;45.058;20.076;2022-12-18T00:49:38;29.77;;;14.82;;
59159;SDS011;44941;45.058;20.076;2022-12-18T00:52:04;28.75;;;14.88;;
59159;SDS011;44941;45.058;20.076;2022-12-18T00:54:30;25.83;;;13.30;;
59159;SDS011;44941;45.058;20.076;2022-12-18T00:56:56;27.95;;;14.32;;
59159;SDS011;44941;45.058;20.076;2022-12-18T00:59:22;27.33;;;14.65;;
59159;SDS011;44941;45.058;20.076;2022-12-18T01:01:48;30.45;;;15.27;;
59159;SDS011;44941;45.058;20.076;2022-12-18T01:04:27;29.38;;;14.93;;
59159;SDS011;44941;45.058;20.076;2022-12-18T01:06:53;29.63;;;14.63;;
59159;SDS011;44941;45.058;20.076;2022-12-18T01:09:19;26.05;;;13.55;;
59159;SDS011;44941;45.058;20.076;2022-12-18T01:11:45;30.80;;;14.65;;
59159;SDS011;44941;45.058;20.076;2022-12-18T01:14:11;27.17;;;13.88;;
59159;SDS011;44941;45.058;20.076;2022-12-18T01:16:37;28.15;;;14.02;;
59159;SDS011;44941;45.058;20.076;2022-12-18T01:19:03;29.88;;;15.20;;
59159;SDS011;44941;45.058;20.076;2022-12-18T01:21:29;31.20;;;15.38;;
59159;SDS011;44941;45.058;20.076;2022-12-18T01:23:56;27.63;;;14.45;;
59159;SDS011;44941;45.058;20.076;2022-12-18T01:26:22;27.98;;;15.27;;
59159;SDS011;44941;45.058;20.076;2022-12-18T01:28:48;30.88;;;14.57;;
59159;SDS011;44941;45.058;20.076;2022-12-18T01:31:16;29.88;;;14.63;;
59159;SDS011;44941;45.058;20.076;2022-12-18T01:33:55;26.15;;;14.43;;
59159;SDS011;44941;45.058;20.076;2022-12-18T01:36:22;30.08;;;14.80;;
59159;SDS011;44941;45.058;20.076;2022-12-18T01:38:49;33.22;;;15.60;;
59159;SDS011;44941;45.058;20.076;2022-12-18T01:41:16;30.80;;;14.88;;
59159;SDS011;44941;45.058;20.076;2022-12-18T01:43:48;27.60;;;14.68;;
59159;SDS011;44941;45.058;20.076;2022-12-18T01:46:15;30.25;;;15.48;;
59159;SDS011;44941;45.058;20.076;2022-12-18T01:48:41;33.63;;;15.60;;
59159;SDS011;44941;45.058;20.076;2022-12-18T01:51:09;30.40;;;15.07;;
59159;SDS011;44941;45.058;20.076;2022-12-18T01:53:35;30.85;;;16.30;;
59159;SDS011;44941;45.058;20.076;2022-12-18T01:56:02;31.92;;;14.77;;
59159;SDS011;44941;45.058;20.076;2022-12-18T01:58:30;29.55;;;15.55;;
59159;SDS011;44941;45.058;20.076;2022-12-18T02:00:58;32.80;;;15.38;;
59159;SDS011;44941;45.058;20.076;2022-12-18T02:03:24;30.25;;;13.98;;
59159;SDS011;44941;45.058;20.076;2022-12-18T02:08:26;34.65;;;14.63;;
59159;SDS011;44941;45.058;20.076;2022-12-18T02:16:06;28.77;;;15.57;;
59159;SDS011;44941;45.058;20.076;2022-12-18T02:18:35;27.50;;;14.90;;
59159;SDS011;44941;45.058;20.076;2022-12-18T02:21:13;29.35;;;14.40;;
59159;SDS011;44941;45.058;20.076;2022-12-18T02:26:30;26.70;;;14.37;;
59159;SDS011;44941;45.058;20.076;2022-12-18T02:31:27;27.85;;;14.13;;
59159;SDS011;44941;45.058;20.076;2022-12-18T02:34:00;30.42;;;15.20;;
59159;SDS011;44941;45.058;20.076;2022-12-18T02:36:27;27.92;;;14.68;;
59159;SDS011;44941;45.058;20.076;2022-12-18T02:38:54;28.15;;;14.80;;
59159;SDS011;44941;45.058;20.076;2022-12-18T02:41:21;32.20;;;15.32;;
59159;SDS011;44941;45.058;20.076;2022-12-18T02:43:58;28.35;;;14.23;;
59159;SDS011;44941;45.058;20.076;2022-12-18T02:46:25;27.83;;;14.88;;
59159;SDS011;44941;45.058;20.076;2022-12-18T02:51:29;24.88;;;12.77;;
59159;SDS011;44941;45.058;20.076;2022-12-18T02:54:10;29.00;;;14.18;;
59159;SDS011;44941;45.058;20.076;2022-12-18T02:56:41;31.30;;;14.77;;
59159;SDS011;44941;45.058;20.076;2022-12-18T02:59:15;27.77;;;14.35;;
59159;SDS011;44941;45.058;20.076;2022-12-18T03:04:12;30.45;;;15.25;;
59159;SDS011;44941;45.058;20.076;2022-12-18T03:06:41;28.33;;;14.68;;
59159;SDS011;44941;45.058;20.076;2022-12-18T03:09:10;33.08;;;15.63;;
59159;SDS011;44941;45.058;20.076;2022-12-18T03:11:38;29.63;;;14.63;;
59159;SDS011;44941;45.058;20.076;2022-12-18T03:14:25;34.17;;;15.93;;
59159;SDS011;44941;45.058;20.076;2022-12-18T03:16:52;30.88;;;14.75;;
59159;SDS011;44941;45.058;20.076;2022-12-18T03:19:21;32.10;;;15.50;;
59159;SDS011;44941;45.058;20.076;2022-12-18T03:21:50;30.95;;;15.75;;
59159;SDS011;44941;45.058;20.076;2022-12-18T03:24:17;28.38;;;14.52;;
59159;SDS011;44941;45.058;20.076;2022-12-18T03:26:44;28.70;;;14.60;;
59159;SDS011;44941;45.058;20.076;2022-12-18T03:29:22;31.90;;;16.10;;
59159;SDS011;44941;45.058;20.076;2022-12-18T03:31:49;32.40;;;14.73;;
59159;SDS011;44941;45.058;20.076;2022-12-18T03:34:29;30.13;;;14.77;;
59159;SDS011;44941;45.058;20.076;2022-12-18T03:36:56;30.58;;;15.25;;
59159;SDS011;44941;45.058;20.076;2022-12-18T03:39:22;34.60;;;15.63;;
59159;SDS011;44941;45.058;20.076;2022-12-18T03:41:54;29.70;;;15.30;;
59159;SDS011;44941;45.058;20.076;2022-12-18T03:44:28;32.33;;;16.10;;
59159;SDS011;44941;45.058;20.076;2022-12-18T03:54:42;32.17;;;14.27;;
59159;SDS011;44941;45.058;20.076;2022-12-18T03:57:12;32.58;;;15.70;;
59159;SDS011;44941;45.058;20.076;2022-12-18T03:59:39;30.73;;;15.10;;
59159;SDS011;44941;45.058;20.076;2022-12-18T04:02:06;29.70;;;15.27;;
59159;SDS011;44941;45.058;20.076;2022-12-18T04:04:34;28.57;;;15.23;;
59159;SDS011;44941;45.058;20.076;2022-12-18T04:07:00;29.88;;;13.98;;
59159;SDS011;44941;45.058;20.076;2022-12-18T04:09:27;33.45;;;16.13;;
59159;SDS011;44941;45.058;20.076;2022-12-18T04:11:54;32.38;;;15.80;;
59159;SDS011;44941;45.058;20.076;2022-12-18T04:14:20;32.05;;;15.88;;
59159;SDS011;44941;45.058;20.076;2022-12-18T04:16:46;30.10;;;15.25;;
59159;SDS011;44941;45.058;20.076;2022-12-18T04:19:24;32.20;;;16.38;;
59159;SDS011;44941;45.058;20.076;2022-12-18T04:21:50;35.70;;;16.27;;
59159;SDS011;44941;45.058;20.076;2022-12-18T04:24:16;33.05;;;16.83;;
59159;SDS011;44941;45.058;20.076;2022-12-18T04:26:42;33.42;;;16.85;;
59159;SDS011;44941;45.058;20.076;2022-12-18T04:29:08;33.65;;;16.48;;
59159;SDS011;44941;45.058;20.076;2022-12-18T04:31:34;30.27;;;16.05;;
59159;SDS011;44941;45.058;20.076;2022-12-18T04:34:01;34.40;;;15.20;;
59159;SDS011;44941;45.058;20.076;2022-12-18T04:36:27;32.92;;;15.43;;
59159;SDS011;44941;45.058;20.076;2022-12-18T04:38:53;31.15;;;15.77;;
59159;SDS011;44941;45.058;20.076;2022-12-18T04:41:19;31.95;;;16.40;;
59159;SDS011;44941;45.058;20.076;2022-12-18T04:43:45;34.78;;;16.60;;
59159;SDS011;44941;45.058;20.076;2022-12-18T04:46:11;34.63;;;16.52;;
59159;SDS011;44941;45.058;20.076;2022-12-18T04:51:44;34.65;;;16.50;;
59159;SDS011;44941;45.058;20.076;2022-12-18T04:54:10;30.52;;;15.73;;
59159;SDS011;44941;45.058;20.076;2022-12-18T04:56:36;31.05;;;16.20;;
59159;SDS011;44941;45.058;20.076;2022-12-18T04:59:02;33.60;;;17.02;;
59159;SDS011;44941;45.058;20.076;2022-12-18T05:01:28;32.28;;;16.10;;
59159;SDS011;44941;45.058;20.076;2022-12-18T05:03:54;34.30;;;16.92;;
59159;SDS011;44941;45.058;20.076;2022-12-18T05:06:20;31.50;;;15.88;;
59159;SDS011;44941;45.058;20.076;2022-12-18T05:08:46;29.33;;;16.00;;
59159;SDS011;44941;45.058;20.076;2022-12-18T05:11:13;37.78;;;17.15;;
59159;SDS011;44941;45.058;20.076;2022-12-18T05:13:40;32.13;;;16.35;;
59159;SDS011;44941;45.058;20.076;2022-12-18T05:16:07;31.15;;;15.50;;
59159;SDS011;44941;45.058;20.076;2022-12-18T05:18:33;33.28;;;17.02;;
59159;SDS011;44941;45.058;20.076;2022-12-18T05:20:59;32.45;;;16.55;;
59159;SDS011;44941;45.058;20.076;2022-12-18T05:23:26;33.88;;;16.02;;
59159;SDS011;44941;45.058;20.076;2022-12-18T05:25:53;30.75;;;16.10;;
59159;SDS011;44941;45.058;20.076;2022-12-18T05:28:20;33.30;;;16.75;;
59159;SDS011;44941;45.058;20.076;2022-12-18T05:30:52;33.42;;;17.05;;
59159;SDS011;44941;45.058;20.076;2022-12-18T05:33:19;34.35;;;16.80;;
59159;SDS011;44941;45.058;20.076;2022-12-18T05:35:52;32.50;;;16.40;;
59159;SDS011;44941;45.058;20.076;2022-12-18T05:38:19;32.78;;;17.17;;
59159;SDS011;44941;45.058;20.076;2022-12-18T05:40:45;35.42;;;17.65;;
59159;SDS011;44941;45.058;20.076;2022-12-18T05:43:11;38.42;;;18.48;;
59159;SDS011;44941;45.058;20.076;2022-12-18T05:45:37;37.25;;;18.40;;
59159;SDS011;44941;45.058;20.076;2022-12-18T05:48:04;36.70;;;18.98;;
59159;SDS011;44941;45.058;20.076;2022-12-18T05:50:41;39.20;;;19.05;;
59159;SDS011;44941;45.058;20.076;2022-12-18T05:53:07;37.05;;;19.08;;
59159;SDS011;44941;45.058;20.076;2022-12-18T05:55:37;37.72;;;19.60;;
59159;SDS011;44941;45.058;20.076;2022-12-18T05:58:04;46.00;;;21.15;;
59159;SDS011;44941;45.058;20.076;2022-12-18T06:00:30;42.67;;;22.33;;
59159;SDS011;44941;45.058;20.076;2022-12-18T06:02:57;56.40;;;28.25;;
59159;SDS011;44941;45.058;20.076;2022-12-18T06:05:24;60.60;;;30.48;;
59159;SDS011;44941;45.058;20.076;2022-12-18T06:07:50;55.70;;;28.00;;
59159;SDS011;44941;45.058;20.076;2022-12-18T06:10:16;43.90;;;21.92;;
59159;SDS011;44941;45.058;20.076;2022-12-18T06:12:42;40.05;;;21.10;;
59159;SDS011;44941;45.058;20.076;2022-12-18T06:15:08;38.78;;;19.95;;
59159;SDS011;44941;45.058;20.076;2022-12-18T06:17:35;40.72;;;20.38;;
59159;SDS011;44941;45.058;20.076;2022-12-18T06:20:01;41.17;;;19.27;;
59159;SDS011;44941;45.058;20.076;2022-12-18T06:22:27;38.83;;;19.85;;
59159;SDS011;44941;45.058;20.076;2022-12-18T06:24:53;39.40;;;20.50;;
59159;SDS011;44941;45.058;20.076;2022-12-18T06:27:19;42.05;;;21.65;;
59159;SDS011;44941;45.058;20.076;2022-12-18T06:29:46;40.33;;;20.10;;
59159;SDS011;44941;45.058;20.076;2022-12-18T06:32:12;39.90;;;19.40;;
59159;SDS011;44941;45.058;20.076;2022-12-18T06:34:38;37.90;;;20.00;;
59159;SDS011;44941;45.058;20.076;2022-12-18T06:37:04;39.03;;;18.98;;
59159;SDS011;44941;45.058;20.076;2022-12-18T06:39:30;41.17;;;19.83;;
59159;SDS011;44941;45.058;20.076;2022-12-18T06:41:56;38.60;;;19.40;;
59159;SDS011;44941;45.058;20.076;2022-12-18T06:44:23;37.00;;;19.17;;
59159;SDS011;44941;45.058;20.076;2022-12-18T06:46:49;42.35;;;20.05;;
59159;SDS011;44941;45.058;20.076;2022-12-18T06:49:15;39.80;;;19.95;;
59159;SDS011;44941;45.058;20.076;2022-12-18T06:51:41;43.08;;;20.55;;
59159;SDS011;44941;45.058;20.076;2022-12-18T06:54:08;36.50;;;18.40;;
59159;SDS011;44941;45.058;20.076;2022-12-18T06:56:34;38.38;;;18.10;;
59159;SDS011;44941;45.058;20.076;2022-12-18T06:59:00;38.53;;;19.73;;
59159;SDS011;44941;45.058;20.076;2022-12-18T07:01:26;42.65;;;20.50;;
59159;SDS011;44941;45.058;20.076;2022-12-18T07:03:53;41.58;;;20.63;;
59159;SDS011;44941;45.058;20.076;2022-12-18T07:06:20;38.80;;;20.40;;
59159;SDS011;44941;45.058;20.076;2022-12-18T07:08:47;40.88;;;19.13;;
59159;SDS011;44941;45.058;20.076;2022-12-18T07:11:14;37.97;;;20.58;;
59159;SDS011;44941;45.058;20.076;2022-12-18T07:13:40;39.83;;;19.35;;
59159;SDS011;44941;45.058;20.076;2022-12-18T07:16:07;40.88;;;20.15;;
59159;SDS011;44941;45.058;20.076;2022-12-18T07:18:33;38.33;;;19.40;;
59159;SDS011;44941;45.058;20.076;2022-12-18T07:21:12;39.00;;;20.65;;
59159;SDS011;44941;45.058;20.076;2022-12-18T07:26:06;42.15;;;19.08;;
59159;SDS011;44941;45.058;20.076;2022-12-18T07:28:32;40.40;;;19.20;;
59159;SDS011;44941;45.058;20.076;2022-12-18T07:31:04;44.70;;;20.42;;
59159;SDS011;44941;45.058;20.076;2022-12-18T07:33:31;40.30;;;20.25;;
59159;SDS011;44941;45.058;20.076;2022-12-18T07:35:58;42.00;;;20.95;;
59159;SDS011;44941;45.058;20.076;2022-12-18T07:38:24;38.65;;;19.90;;
59159;SDS011;44941;45.058;20.076;2022-12-18T07:40:50;40.97;;;20.42;;
59159;SDS011;44941;45.058;20.076;2022-12-18T07:43:16;38.90;;;20.52;;
59159;SDS011;44941;45.058;20.076;2022-12-18T07:45:43;41.72;;;20.20;;
59159;SDS011;44941;45.058;20.076;2022-12-18T07:48:09;39.15;;;19.38;;
59159;SDS011;44941;45.058;20.076;2022-12-18T07:53:45;42.53;;;20.77;;
59159;SDS011;44941;45.058;20.076;2022-12-18T07:56:11;44.20;;;20.50;;
59159;SDS011;44941;45.058;20.076;2022-12-18T07:58:38;39.03;;;19.95;;
59159;SDS011;44941;45.058;20.076;2022-12-18T08:01:05;44.33;;;21.08;;
59159;SDS011;44941;45.058;20.076;2022-12-18T08:03:31;41.97;;;21.08;;
59159;SDS011;44941;45.058;20.076;2022-12-18T08:06:13;41.92;;;21.67;;
59159;SDS011;44941;45.058;20.076;2022-12-18T08:08:39;46.15;;;22.67;;
59159;SDS011;44941;45.058;20.076;2022-12-18T08:11:08;42.92;;;21.38;;
59159;SDS011;44941;45.058;20.076;2022-12-18T08:13:34;44.75;;;21.27;;
59159;SDS011;44941;45.058;20.076;2022-12-18T08:16:02;41.85;;;21.40;;
59159;SDS011;44941;45.058;20.076;2022-12-18T08:18:28;43.75;;;21.92;;
59159;SDS011;44941;45.058;20.076;2022-12-18T08:23:40;48.17;;;22.60;;
59159;SDS011;44941;45.058;20.076;2022-12-18T08:26:06;41.97;;;20.88;;
59159;SDS011;44941;45.058;20.076;2022-12-18T08:28:32;50.53;;;23.83;;
59159;SDS011;44941;45.058;20.076;2022-12-18T08:30:58;44.92;;;21.33;;
59159;SDS011;44941;45.058;20.076;2022-12-18T08:33:25;56.05;;;25.65;;
59159;SDS011;44941;45.058;20.076;2022-12-18T08:35:51;56.10;;;25.25;;
59159;SDS011;44941;45.058;20.076;2022-12-18T08:38:17;45.28;;;22.08;;
59159;SDS011;44941;45.058;20.076;2022-12-18T08:40:43;42.45;;;21.42;;
59159;SDS011;44941;45.058;20.076;2022-12-18T08:43:10;47.53;;;22.38;;
59159;SDS011;44941;45.058;20.076;2022-12-18T08:45:55;44.97;;;22.35;;
59159;SDS011;44941;45.058;20.076;2022-12-18T08:48:21;41.60;;;20.70;;
59159;SDS011;44941;45.058;20.076;2022-12-18T08:50:56;46.03;;;21.65;;
59159;SDS011;44941;45.058;20.076;2022-12-18T08:53:26;44.28;;;21.67;;
59159;SDS011;44941;45.058;20.076;2022-12-18T08:55:52;47.15;;;22.25;;
59159;SDS011;44941;45.058;20.076;2022-12-18T08:58:19;47.83;;;22.83;;
59159;SDS011;44941;45.058;20.076;2022-12-18T09:00:45;43.90;;;21.65;;
59159;SDS011;44941;45.058;20.076;2022-12-18T09:03:12;49.17;;;21.98;;
59159;SDS011;44941;45.058;20.076;2022-12-18T09:05:38;42.88;;;20.10;;
59159;SDS011;44941;45.058;20.076;2022-12-18T09:08:04;43.35;;;21.15;;
59159;SDS011;44941;45.058;20.076;2022-12-18T09:10:30;43.35;;;21.33;;
59159;SDS011;44941;45.058;20.076;2022-12-18T09:12:57;44.78;;;21.20;;
59159;SDS011;44941;45.058;20.076;2022-12-18T09:15:23;44.65;;;22.10;;
59159;SDS011;44941;45.058;20.076;2022-12-18T09:17:49;42.40;;;21.63;;
59159;SDS011;44941;45.058;20.076;2022-12-18T09:20:18;45.17;;;20.85;;
59159;SDS011;44941;45.058;20.076;2022-12-18T09:22:44;45.85;;;22.60;;
59159;SDS011;44941;45.058;20.076;2022-12-18T09:25:12;45.97;;;22.08;;
59159;SDS011;44941;45.058;20.076;2022-12-18T09:27:38;44.47;;;22.77;;
59159;SDS011;44941;45.058;20.076;2022-12-18T09:30:04;41.70;;;20.63;;
59159;SDS011;44941;45.058;20.076;2022-12-18T09:32:30;42.33;;;21.60;;
59159;SDS011;44941;45.058;20.076;2022-12-18T09:34:56;41.50;;;21.05;;
59159;SDS011;44941;45.058;20.076;2022-12-18T09:37:23;44.83;;;22.13;;
59159;SDS011;44941;45.058;20.076;2022-12-18T09:39:49;50.75;;;23.63;;
59159;SDS011;44941;45.058;20.076;2022-12-18T09:42:18;48.53;;;24.45;;
59159;SDS011;44941;45.058;20.076;2022-12-18T09:44:48;42.55;;;21.23;;
59159;SDS011;44941;45.058;20.076;2022-12-18T09:47:19;54.70;;;25.00;;
59159;SDS011;44941;45.058;20.076;2022-12-18T09:49:55;44.50;;;21.80;;
59159;SDS011;44941;45.058;20.076;2022-12-18T09:57:54;47.65;;;22.58;;
59159;SDS011;44941;45.058;20.076;2022-12-18T10:00:22;48.40;;;22.95;;
59159;SDS011;44941;45.058;20.076;2022-12-18T10:02:49;49.88;;;23.90;;
59159;SDS011;44941;45.058;20.076;2022-12-18T10:05:17;50.90;;;24.60;;
59159;SDS011;44941;45.058;20.076;2022-12-18T10:08:05;46.70;;;21.98;;
59159;SDS011;44941;45.058;20.076;2022-12-18T10:10:38;44.08;;;22.13;;
59159;SDS011;44941;45.058;20.076;2022-12-18T10:13:10;47.28;;;22.95;;
59159;SDS011;44941;45.058;20.076;2022-12-18T10:18:25;48.75;;;21.90;;
59159;SDS011;44941;45.058;20.076;2022-12-18T10:20:56;44.40;;;21.63;;
59159;SDS011;44941;45.058;20.076;2022-12-18T10:23:26;42.03;;;22.30;;
59159;SDS011;44941;45.058;20.076;2022-12-18T10:26:01;41.80;;;21.45;;
59159;SDS011;44941;45.058;20.076;2022-12-18T10:28:29;44.50;;;22.35;;
59159;SDS011;44941;45.058;20.076;2022-12-18T10:30:56;41.55;;;21.60;;
59159;SDS011;44941;45.058;20.076;2022-12-18T10:33:23;42.47;;;21.40;;
59159;SDS011;44941;45.058;20.076;2022-12-18T10:35:52;46.13;;;22.35;;
59159;SDS011;44941;45.058;20.076;2022-12-18T10:40:53;43.17;;;20.63;;
59159;SDS011;44941;45.058;20.076;2022-12-18T10:43:20;46.90;;;21.83;;
59159;SDS011;44941;45.058;20.076;2022-12-18T10:48:33;45.33;;;23.75;;
59159;SDS011;44941;45.058;20.076;2022-12-18T10:51:03;46.55;;;23.42;;
59159;SDS011;44941;45.058;20.076;2022-12-18T10:53:30;48.75;;;23.20;;
59159;SDS011;44941;45.058;20.076;2022-12-18T10:55:57;44.72;;;22.95;;
59159;SDS011;44941;45.058;20.076;2022-12-18T10:58:28;50.10;;;25.17;;
59159;SDS011;44941;45.058;20.076;2022-12-18T11:01:07;54.40;;;26.35;;
59159;SDS011;44941;45.058;20.076;2022-12-18T11:06:07;50.00;;;23.55;;
59159;SDS011;44941;45.058;20.076;2022-12-18T11:08:33;45.05;;;21.80;;
59159;SDS011;44941;45.058;20.076;2022-12-18T11:10:59;51.15;;;24.40;;
59159;SDS011;44941;45.058;20.076;2022-12-18T11:13:26;51.97;;;25.80;;
59159;SDS011;44941;45.058;20.076;2022-12-18T11:15:53;59.88;;;30.80;;
59159;SDS011;44941;45.058;20.076;2022-12-18T11:20:56;53.20;;;25.90;;
59159;SDS011;44941;45.058;20.076;2022-12-18T11:23:23;49.97;;;24.77;;
59159;SDS011;44941;45.058;20.076;2022-12-18T11:25:53;52.58;;;25.30;;
59159;SDS011;44941;45.058;20.076;2022-12-18T11:31:35;53.25;;;23.75;;
59159;SDS011;44941;45.058;20.076;2022-12-18T11:36:25;51.58;;;24.35;;
59159;SDS011;44941;45.058;20.076;2022-12-18T11:38:54;48.38;;;23.98;;
59159;SDS011;44941;45.058;20.076;2022-12-18T11:41:23;49.33;;;24.27;;
59159;SDS011;44941;45.058;20.076;2022-12-18T11:44:11;50.33;;;23.83;;
59159;SDS011;44941;45.058;20.076;2022-12-18T11:46:43;48.28;;;24.65;;
59159;SDS011;44941;45.058;20.076;2022-12-18T11:49:12;51.15;;;24.58;;
59159;SDS011;44941;45.058;20.076;2022-12-18T11:51:44;47.20;;;24.60;;
59159;SDS011;44941;45.058;20.076;2022-12-18T11:54:13;47.90;;;24.08;;
59159;SDS011;44941;45.058;20.076;2022-12-18T11:56:46;49.17;;;23.55;;
59159;SDS011;44941;45.058;20.076;2022-12-18T11:59:20;50.53;;;23.70;;
59159;SDS011;44941;45.058;20.076;2022-12-18T12:01:53;48.08;;;24.27;;
59159;SDS011;44941;45.058;20.076;2022-12-18T12:10:26;46.17;;;23.27;;
59159;SDS011;44941;45.058;20.076;2022-12-18T12:15:03;44.65;;;24.58;;
59159;SDS011;44941;45.058;20.076;2022-12-18T12:38:34;49.85;;;24.15;;
59159;SDS011;44941;45.058;20.076;2022-12-18T12:41:10;61.58;;;29.45;;
59159;SDS011;44941;45.058;20.076;2022-12-18T12:43:58;52.95;;;26.85;;
59159;SDS011;44941;45.058;20.076;2022-12-18T12:46:26;59.05;;;27.75;;
59159;SDS011;44941;45.058;20.076;2022-12-18T12:48:53;52.53;;;26.42;;
59159;SDS011;44941;45.058;20.076;2022-12-18T12:51:21;53.80;;;27.93;;
59159;SDS011;44941;45.058;20.076;2022-12-18T12:53:48;50.15;;;26.30;;
59159;SDS011;44941;45.058;20.076;2022-12-18T12:56:16;56.60;;;28.75;;
59159;SDS011;44941;45.058;20.076;2022-12-18T13:08:57;51.92;;;26.05;;
59159;SDS011;44941;45.058;20.076;2022-12-18T13:14:21;51.72;;;27.23;;
59159;SDS011;44941;45.058;20.076;2022-12-18T13:16:48;47.92;;;24.83;;
59159;SDS011;44941;45.058;20.076;2022-12-18T13:19:23;53.47;;;26.25;;
59159;SDS011;44941;45.058;20.076;2022-12-18T13:21:53;48.70;;;25.65;;
59159;SDS011;44941;45.058;20.076;2022-12-18T13:24:24;50.97;;;26.58;;
59159;SDS011;44941;45.058;20.076;2022-12-18T13:26:50;55.92;;;27.20;;
59159;SDS011;44941;45.058;20.076;2022-12-18T13:32:15;52.38;;;26.55;;
59159;SDS011;44941;45.058;20.076;2022-12-18T13:34:44;50.42;;;26.02;;
59159;SDS011;44941;45.058;20.076;2022-12-18T13:39:55;51.50;;;27.13;;
59159;SDS011;44941;45.058;20.076;2022-12-18T13:47:56;51.53;;;27.10;;
59159;SDS011;44941;45.058;20.076;2022-12-18T13:50:23;56.00;;;27.85;;
59159;SDS011;44941;45.058;20.076;2022-12-18T13:52:50;52.85;;;27.58;;
59159;SDS011;44941;45.058;20.076;2022-12-18T13:55:18;53.05;;;26.23;;
59159;SDS011;44941;45.058;20.076;2022-12-18T13:57:44;59.25;;;28.45;;
59159;SDS011;44941;45.058;20.076;2022-12-18T14:02:49;62.40;;;30.42;;
59159;SDS011;44941;45.058;20.076;2022-12-18T14:05:29;51.55;;;27.05;;
59159;SDS011;44941;45.058;20.076;2022-12-18T14:07:59;55.33;;;27.27;;
59159;SDS011;44941;45.058;20.076;2022-12-18T14:10:26;54.88;;;28.58;;
59159;SDS011;44941;45.058;20.076;2022-12-18T14:12:53;71.43;;;35.58;;
59159;SDS011;44941;45.058;20.076;2022-12-18T14:17:51;52.92;;;25.92;;
59159;SDS011;44941;45.058;20.076;2022-12-18T14:20:18;52.47;;;25.23;;
59159;SDS011;44941;45.058;20.076;2022-12-18T14:22:45;65.03;;;28.17;;
59159;SDS011;44941;45.058;20.076;2022-12-18T14:28:20;51.95;;;26.63;;
59159;SDS011;44941;45.058;20.076;2022-12-18T14:30:29;57.83;;;28.50;;
59159;SDS011;44941;45.058;20.076;2022-12-18T14:35:34;55.55;;;28.98;;
59159;SDS011;44941;45.058;20.076;2022-12-18T14:38:11;60.07;;;29.57;;
59159;SDS011;44941;45.058;20.076;2022-12-18T14:40:43;59.75;;;28.85;;
59159;SDS011;44941;45.058;20.076;2022-12-18T14:43:10;63.38;;;31.23;;
59159;SDS011;44941;45.058;20.076;2022-12-18T14:45:37;64.60;;;31.85;;
59159;SDS011;44941;45.058;20.076;2022-12-18T14:48:22;61.35;;;30.50;;
59159;SDS011;44941;45.058;20.076;2022-12-18T14:50:57;64.85;;;31.27;;
59159;SDS011;44941;45.058;20.076;2022-12-18T14:53:40;69.88;;;34.50;;
59159;SDS011;44941;45.058;20.076;2022-12-18T14:56:13;60.75;;;31.40;;
59159;SDS011;44941;45.058;20.076;2022-12-18T14:58:43;61.22;;;28.67;;
59159;SDS011;44941;45.058;20.076;2022-12-18T15:01:17;61.95;;;30.77;;
59159;SDS011;44941;45.058;20.076;2022-12-18T15:03:43;59.30;;;29.58;;
59159;SDS011;44941;45.058;20.076;2022-12-18T15:06:42;58.63;;;30.02;;
59159;SDS011;44941;45.058;20.076;2022-12-18T15:09:05;57.30;;;30.30;;
59159;SDS011;44941;45.058;20.076;2022-12-18T15:11:46;65.07;;;30.92;;
59159;SDS011;44941;45.058;20.076;2022-12-18T15:14:22;61.85;;;30.15;;
59159;SDS011;44941;45.058;20.076;2022-12-18T15:16:52;60.17;;;29.90;;
59159;SDS011;44941;45.058;20.076;2022-12-18T15:19:19;70.25;;;34.30;;
59159;SDS011;44941;45.058;20.076;2022-12-18T15:21:46;61.60;;;32.13;;
59159;SDS011;44941;45.058;20.076;2022-12-18T15:24:20;65.93;;;31.10;;
59159;SDS011;44941;45.058;20.076;2022-12-18T15:26:48;61.40;;;30.80;;
59159;SDS011;44941;45.058;20.076;2022-12-18T15:29:15;60.83;;;30.30;;
59159;SDS011;44941;45.058;20.076;2022-12-18T15:31:43;67.80;;;34.03;;
59159;SDS011;44941;45.058;20.076;2022-12-18T15:34:13;65.55;;;33.03;;
59159;SDS011;44941;45.058;20.076;2022-12-18T15:36:40;62.65;;;32.03;;
59159;SDS011;44941;45.058;20.076;2022-12-18T15:39:06;66.30;;;31.50;;
59159;SDS011;44941;45.058;20.076;2022-12-18T15:41:33;66.05;;;32.92;;
59159;SDS011;44941;45.058;20.076;2022-12-18T15:43:59;68.60;;;31.85;;
59159;SDS011;44941;45.058;20.076;2022-12-18T15:46:27;62.95;;;30.55;;
59159;SDS011;44941;45.058;20.076;2022-12-18T15:48:54;72.03;;;33.80;;
59159;SDS011;44941;45.058;20.076;2022-12-18T15:53:47;70.03;;;31.23;;
59159;SDS011;44941;45.058;20.076;2022-12-18T15:56:15;64.88;;;32.35;;
59159;SDS011;44941;45.058;20.076;2022-12-18T15:59:00;70.03;;;32.03;;
59159;SDS011;44941;45.058;20.076;2022-12-18T16:01:27;66.72;;;32.03;;
59159;SDS011;44941;45.058;20.076;2022-12-18T16:03:53;73.68;;;36.25;;
59159;SDS011;44941;45.058;20.076;2022-12-18T16:06:20;70.97;;;34.88;;
59159;SDS011;44941;45.058;20.076;2022-12-18T16:08:46;77.13;;;35.97;;
59159;SDS011;44941;45.058;20.076;2022-12-18T16:11:28;72.50;;;32.97;;
59159;SDS011;44941;45.058;20.076;2022-12-18T16:14:15;74.50;;;34.33;;
59159;SDS011;44941;45.058;20.076;2022-12-18T16:16:42;72.25;;;35.40;;
59159;SDS011;44941;45.058;20.076;2022-12-18T16:19:08;67.35;;;31.95;;
59159;SDS011;44941;45.058;20.076;2022-12-18T16:21:34;65.07;;;31.48;;
59159;SDS011;44941;45.058;20.076;2022-12-18T16:24:00;68.30;;;32.40;;